Time;durP1;ratioP1;P1;durP2;ratioP2;P2;SDS_P1;SDS_P2;PMS_P1;PMS_P2;Temp;Humidity;BMP_temperature;BMP_pressure;BME280_temperature;BME280_humidity;BME280_pressure;Samples;Min_cycle;Max_cycle;Signal;HPM_P1;HPM_P2
2022/05/10 00:01:14;;;;;;;7.50;6.75;;;;;;;15.40;66.72;100405.56;5073623;28;20101;-69
2022/05/10 00:04:00;;;;;;;10.13;8.45;;;;;;;15.42;66.87;100398.59;5073172;28;20051;-70
2022/05/10 00:06:47;;;;;;;10.68;8.07;;;;;;;15.41;66.57;100394.25;5073416;28;20047;-69
2022/05/10 00:09:31;;;;;;;9.82;7.88;;;;;;;15.42;66.24;100396.88;5074372;28;20043;-69
2022/05/10 00:12:15;;;;;;;;;;;;;;;15.41;66.54;100386.44;5074481;28;20055;-69
2022/05/10 00:15:02;;;;;;;10.75;7.30;;;;;;;15.39;66.65;100391.63;5073311;28;19924;-70
2022/05/10 00:17:47;;;;;;;9.98;8.48;;;;;;;15.41;66.70;100389.91;5073063;28;20486;-70
2022/05/10 00:20:32;;;;;;;11.43;7.60;;;;;;;15.42;66.44;100388.13;5073174;28;20047;-70
2022/05/10 00:23:16;;;;;;;9.57;7.75;;;;;;;15.41;66.52;100386.44;5074131;28;20075;-70
2022/05/10 00:26:00;;;;;;;12.07;8.60;;;;;;;15.41;66.26;100382.06;5073633;28;20404;-70
2022/05/10 00:28:45;;;;;;;10.90;7.65;;;;;;;15.40;66.57;100385.53;5087050;28;20050;-70
2022/05/10 00:31:29;;;;;;;8.32;7.32;;;;;;;15.41;66.64;100381.19;5072557;28;20055;-69
2022/05/10 00:34:16;;;;;;;9.93;7.78;;;;;;;15.41;66.75;100373.38;5072895;28;20051;-70
2022/05/10 00:37:01;;;;;;;13.88;8.85;;;;;;;15.41;66.42;100378.59;5072238;28;20406;-69
2022/05/10 00:39:45;;;;;;;12.98;8.35;;;;;;;15.40;66.54;100377.69;5073746;28;20060;-70
2022/05/10 00:42:38;;;;;;;11.05;8.48;;;;;;;15.40;66.52;100371.63;5073827;28;20051;-70
2022/05/10 00:45:36;;;;;;;13.07;8.43;;;;;;;15.39;66.57;100375.97;5073447;28;20106;-70
2022/05/10 00:48:50;;;;;;;10.05;8.50;;;;;;;15.38;66.84;100376.81;5072856;28;20518;-69
2022/05/10 00:51:58;;;;;;;13.27;9.23;;;;;;;15.36;66.60;100369.00;5086567;28;20453;-69
2022/05/10 00:55:15;;;;;;;12.30;8.35;;;;;;;15.37;66.81;100367.25;5072379;28;20125;-69
2022/05/10 00:58:10;;;;;;;11.50;8.27;;;;;;;15.36;66.84;100360.28;5072198;28;20561;-70
2022/05/10 01:00:55;;;;;;;14.52;9.20;;;;;;;15.36;66.82;100369.00;5072088;28;20116;-70
2022/05/10 01:03:50;;;;;;;10.07;8.35;;;;;;;15.36;66.80;100365.50;5071977;28;20582;-70
2022/05/10 01:06:46;;;;;;;13.68;9.10;;;;;;;15.35;66.68;100367.25;5072578;28;20526;-69
2022/05/10 01:10:06;;;;;;;13.30;9.10;;;;;;;15.35;66.58;100356.81;5072608;28;20051;-69
2022/05/10 01:13:16;;;;;;;12.48;8.55;;;;;;;15.35;66.75;100354.19;5072195;28;20075;-70
2022/05/10 01:16:03;;;;;;;12.93;8.45;;;;;;;15.33;66.74;100348.09;5073446;28;20064;-70
2022/05/10 01:18:47;;;;;;;13.10;9.27;;;;;;;15.33;66.73;100347.25;5072059;28;20549;-70
2022/05/10 01:21:47;;;;;;;11.23;8.32;;;;;;;15.32;66.72;100346.34;5072547;28;20118;-70
2022/05/10 01:24:51;;;;;;;10.13;8.40;;;;;;;15.32;66.69;100348.97;5073153;28;20075;-69
2022/05/10 01:27:50;;;;;;;11.32;9.10;;;;;;;15.33;66.77;100344.63;5072120;28;20055;-69
2022/05/10 01:30:36;;;;;;;9.90;7.50;;;;;;;15.33;66.66;100344.63;5071785;28;20051;-70
2022/05/10 01:33:31;;;;;;;9.60;8.18;;;;;;;15.32;66.78;100346.34;5073261;28;20222;-70
2022/05/10 01:36:18;;;;;;;12.65;8.18;;;;;;;15.33;66.81;100340.25;5072300;28;20048;-70
2022/05/10 01:39:11;;;;;;;11.07;9.50;;;;;;;15.32;66.56;100340.28;5073014;28;20048;-69
2022/05/10 01:42:23;;;;;;;14.38;9.38;;;;;;;15.32;66.78;100335.06;5071920;28;20530;-70
2022/05/10 01:45:17;;;;;;;12.20;9.20;;;;;;;15.31;66.76;100335.94;5072560;28;20090;-70
2022/05/10 01:48:03;;;;;;;14.23;9.43;;;;;;;15.31;66.81;100330.69;5072231;28;20063;-69
2022/05/10 01:50:52;;;;;;;13.98;9.85;;;;;;;15.31;67.19;100325.47;5072033;28;20469;-69
2022/05/10 01:53:39;;;;;;;13.60;9.55;;;;;;;15.30;66.58;100321.13;5073082;28;20082;-70
2022/05/10 01:56:26;;;;;;;12.68;9.15;;;;;;;15.31;66.53;100323.72;5072014;28;20079;-69
2022/05/10 01:59:10;;;;;;;13.82;9.98;;;;;;;15.30;66.82;100321.97;5071284;28;20051;-71
2022/05/10 02:01:55;;;;;;;;;;;;;;;15.29;66.82;100322.84;5072914;28;20058;-69
2022/05/10 02:04:41;;;;;;;11.40;9.70;;;;;;;15.28;66.68;100318.50;5086995;28;20049;-69
2022/05/10 02:07:28;;;;;;;13.10;9.52;;;;;;;15.28;66.51;100317.63;5075377;28;20060;-69
2022/05/10 02:10:27;;;;;;;14.07;9.82;;;;;;;15.28;66.77;100320.25;5075609;28;20051;-69
2022/05/10 02:13:20;;;;;;;17.00;9.52;;;;;;;15.27;66.81;100321.97;5075204;28;20185;-69
2022/05/10 02:16:20;;;;;;;12.18;9.52;;;;;;;15.28;66.77;100318.50;5076469;28;20052;-69
2022/05/10 02:19:10;;;;;;;13.00;10.05;;;;;;;15.27;66.69;100318.50;5076029;28;20147;-69
2022/05/10 02:21:59;;;;;;;14.88;10.10;;;;;;;15.26;66.69;100320.22;5076186;28;20395;-69
2022/05/10 02:24:51;;;;;;;12.30;8.90;;;;;;;15.27;66.91;100315.88;5075402;28;20059;-69
2022/05/10 02:27:57;;;;;;;10.98;9.30;;;;;;;15.27;66.40;100310.66;5075247;28;20059;-69
2022/05/10 02:30:42;;;;;;;14.27;8.88;;;;;;;15.27;66.85;100308.91;5073771;28;20051;-69
2022/05/10 02:33:27;;;;;;;;;;;;;;;15.25;66.64;100301.97;5076122;28;20122;-69
2022/05/10 02:36:13;;;;;;;11.25;9.73;;;;;;;15.23;66.66;100302.81;5075185;28;19919;-69
2022/05/10 02:38:58;;;;;;;10.43;9.02;;;;;;;15.25;66.76;100299.34;5074392;28;20106;-69
2022/05/10 02:41:42;;;;;;;12.55;10.07;;;;;;;15.25;66.80;100292.41;5075780;28;20043;-69
2022/05/10 02:44:27;;;;;;;;;;;;;;;15.23;66.66;100295.00;5075565;28;20050;-69
2022/05/10 02:47:11;;;;;;;13.13;9.88;;;;;;;15.20;66.73;100291.53;5074761;28;20382;-69
2022/05/10 02:49:55;;;;;;;12.70;9.50;;;;;;;15.21;66.93;100283.69;5075706;28;20051;-69
2022/05/10 02:52:39;;;;;;;11.82;9.07;;;;;;;15.20;66.89;100281.94;5074947;28;20051;-69
2022/05/10 02:55:30;;;;;;;11.93;9.48;;;;;;;15.21;66.81;100281.06;5075213;28;20166;-70
2022/05/10 02:58:38;;;;;;;11.65;9.38;;;;;;;15.20;66.77;100281.94;5074951;28;20525;-70
2022/05/10 03:01:27;;;;;;;10.43;9.13;;;;;;;15.20;66.79;100276.72;5074984;28;20081;-69
2022/05/10 03:04:14;;;;;;;11.85;9.27;;;;;;;15.22;66.75;100276.72;5074280;28;20063;-69
2022/05/10 03:06:58;;;;;;;11.23;9.00;;;;;;;15.24;66.71;100272.38;5074529;28;20047;-69
2022/05/10 03:09:42;;;;;;;;;;;;;;;15.22;66.94;100274.97;5075447;28;20466;-69
2022/05/10 03:12:28;;;;;;;11.57;9.57;;;;;;;15.21;67.04;100268.00;5075113;28;20024;-69
2022/05/10 03:15:13;;;;;;;11.20;9.10;;;;;;;15.21;66.91;100260.19;5074388;28;20052;-69
2022/05/10 03:17:59;;;;;;;12.70;9.10;;;;;;;15.20;66.80;100263.66;5073869;28;20490;-70
2022/05/10 03:20:44;;;;;;;13.10;9.25;;;;;;;15.22;66.83;100266.28;5074732;28;20052;-69
2022/05/10 03:23:30;;;;;;;12.23;9.77;;;;;;;15.20;66.89;100261.03;5073991;28;20047;-69
2022/05/10 03:26:18;;;;;;;10.38;9.27;;;;;;;15.21;67.01;100260.19;5073676;28;20091;-70
2022/05/10 03:29:03;;;;;;;10.00;8.80;;;;;;;15.20;66.80;100263.66;5074240;28;20455;-70
2022/05/10 03:31:48;;;;;;;10.55;9.20;;;;;;;15.19;66.84;100256.69;5073762;28;20114;-70
2022/05/10 03:37:35;;;;;;;12.07;8.88;;;;;;;15.17;67.05;100255.84;5074686;28;20154;-70
2022/05/10 03:40:19;;;;;;;11.88;9.68;;;;;;;15.18;66.81;100248.88;5074390;28;20063;-70
2022/05/10 03:43:03;;;;;;;9.45;7.88;;;;;;;15.17;66.95;100252.34;5073686;28;20510;-70
2022/05/10 03:45:47;;;;;;;11.05;9.32;;;;;;;15.18;67.00;100251.50;5073640;28;20557;-70
2022/05/10 03:48:31;;;;;;;;;;;;;;;15.15;66.77;100249.75;5074222;28;20098;-69
2022/05/10 03:51:16;;;;;;;9.73;8.05;;;;;;;15.15;66.83;100249.75;5074119;28;19920;-70
2022/05/10 03:54:01;;;;;;;14.93;9.77;;;;;;;15.14;67.00;100248.00;5073084;28;20093;-71
2022/05/10 03:56:45;;;;;;;16.02;9.32;;;;;;;15.14;66.75;100247.13;5074325;28;20055;-69
2022/05/10 03:59:29;;;;;;;10.48;9.20;;;;;;;15.13;66.79;100248.00;5074178;28;20238;-70
2022/05/10 04:02:14;;;;;;;11.23;8.82;;;;;;;15.12;66.79;100243.63;5073701;28;20055;-70
2022/05/10 04:04:58;;;;;;;10.38;7.93;;;;;;;15.10;66.85;100243.66;5073020;28;20161;-69
2022/05/10 04:07:42;;;;;;;12.55;8.40;;;;;;;15.08;66.92;100240.16;5073191;28;20454;-69
2022/05/10 04:10:25;;;;;;;10.43;9.15;;;;;;;15.07;66.75;100241.91;5073969;28;20098;-70
2022/05/10 04:13:10;;;;;;;11.32;9.30;;;;;;;15.06;66.97;100241.91;5073767;28;20090;-69
2022/05/10 04:15:54;;;;;;;12.43;9.50;;;;;;;15.05;67.00;100241.03;5073502;28;20077;-69
2022/05/10 04:18:38;;;;;;;10.88;8.98;;;;;;;15.05;66.84;100237.53;5073880;28;20526;-70
2022/05/10 04:21:22;;;;;;;9.85;8.55;;;;;;;15.05;67.05;100242.75;5074209;28;20070;-70
2022/05/10 04:24:07;;;;;;;10.35;8.25;;;;;;;15.03;66.87;100245.38;5074039;28;20109;-69
2022/05/10 04:26:51;;;;;;;12.43;8.02;;;;;;;15.04;66.70;100243.63;5072670;28;20044;-70
2022/05/10 04:29:37;;;;;;;11.80;8.32;;;;;;;15.03;66.98;100241.88;5072955;28;20071;-69
2022/05/10 04:32:21;;;;;;;9.27;8.27;;;;;;;15.00;66.37;100234.09;5074018;28;20046;-70
2022/05/10 04:35:06;;;;;;;;;;;;;;;14.99;66.76;100238.41;5074332;28;20098;-69
2022/05/10 04:37:50;;;;;;;9.13;8.15;;;;;;;14.98;66.81;100236.69;5072450;28;19922;-69
2022/05/10 04:43:37;;;;;;;13.32;7.80;;;;;;;14.98;66.72;100235.81;5073708;28;20136;-70
2022/05/10 04:46:22;;;;;;;12.48;8.35;;;;;;;14.97;66.88;100234.94;5072794;28;20055;-69
2022/05/10 04:49:11;;;;;;;12.68;8.75;;;;;;;14.95;66.95;100234.06;5073070;28;20086;-69
2022/05/10 04:51:56;;;;;;;17.30;8.70;;;;;;;14.96;66.95;100240.16;5072872;28;20206;-69
2022/05/10 04:54:40;;;;;;;11.55;8.82;;;;;;;14.95;67.04;100241.03;5072179;28;20052;-69
2022/05/10 04:57:24;;;;;;;;;;;;;;;14.93;66.88;100243.66;5072628;28;20043;-69
2022/05/10 05:00:13;;;;;;;12.95;7.50;;;;;;;14.92;67.06;100247.97;5072949;28;19924;-70
2022/05/10 05:02:57;;;;;;;12.52;8.73;;;;;;;14.91;66.98;100240.16;5072112;28;20538;-69
2022/05/10 05:05:41;;;;;;;9.55;7.18;;;;;;;14.91;66.87;100246.25;5072523;28;20120;-70
2022/05/10 05:08:25;;;;;;;11.65;7.90;;;;;;;14.94;67.00;100247.13;5073220;28;20105;-70
2022/05/10 05:11:09;;;;;;;10.25;7.95;;;;;;;14.92;67.16;100253.19;5072780;28;20047;-69
2022/05/10 05:13:53;;;;;;;13.88;8.05;;;;;;;14.91;66.98;100251.47;5073501;28;20052;-70
2022/05/10 05:16:37;;;;;;;;;;;;;;;14.92;66.95;100247.13;5073781;28;20074;-69
2022/05/10 05:19:21;;;;;;;13.23;8.20;;;;;;;14.89;67.14;100236.69;5073076;28;19922;-69
2022/05/10 05:22:08;;;;;;;13.32;9.02;;;;;;;14.90;67.18;100244.50;5073104;28;20043;-70
2022/05/10 05:24:53;;;;;;;12.77;9.00;;;;;;;14.93;67.33;100246.25;5072432;28;20391;-69
2022/05/10 05:27:37;;;;;;;13.02;9.07;;;;;;;14.91;67.25;100243.63;5072509;28;20087;-70
2022/05/10 05:30:21;;;;;;;13.10;8.48;;;;;;;14.91;67.34;100246.25;5072554;28;20102;-70
2022/05/10 05:33:05;;;;;;;10.90;8.23;;;;;;;14.92;67.08;100247.13;5073351;28;20047;-70
2022/05/10 05:38:10;;;;;;;11.50;8.80;;;;;;;14.89;67.30;100242.75;5111379;27;20258;-69
2022/05/10 05:40:54;;;;;;;11.98;8.52;;;;;;;14.89;67.34;100237.53;5111236;28;20046;-69
2022/05/10 05:43:38;;;;;;;10.50;8.45;;;;;;;14.94;67.25;100245.38;5111591;28;20043;-69
2022/05/10 05:46:22;;;;;;;16.13;10.05;;;;;;;14.95;67.41;100238.41;5110992;28;20055;-70
2022/05/10 05:49:06;;;;;;;16.83;8.27;;;;;;;14.98;67.77;100241.03;5111193;28;20456;-69
2022/05/10 05:51:54;;;;;;;18.83;8.55;;;;;;;14.96;67.21;100235.78;5109922;28;20046;-69
2022/05/10 05:54:38;;;;;;;14.00;8.35;;;;;;;14.99;67.40;100243.63;5110027;28;20039;-70
2022/05/10 05:57:22;;;;;;;13.93;8.23;;;;;;;15.00;67.26;100239.31;5111049;28;20102;-70
2022/05/10 06:00:13;;;;;;;14.95;8.82;;;;;;;15.00;67.26;100242.78;5110463;28;20055;-70
2022/05/10 06:02:57;;;;;;;19.10;8.15;;;;;;;15.03;67.30;100240.16;5110213;28;20047;-70
2022/05/10 06:05:41;;;;;;;10.57;7.72;;;;;;;15.03;67.36;100247.09;5111270;28;20181;-70
2022/05/10 06:08:28;;;;;;;10.32;8.45;;;;;;;15.05;67.37;100242.75;5111174;28;20055;-69
2022/05/10 06:11:14;;;;;;;9.73;7.72;;;;;;;15.06;67.48;100249.72;5109943;28;20093;-70
2022/05/10 06:14:00;;;;;;;20.58;8.68;;;;;;;15.08;67.14;100255.81;5110079;28;20446;-69
2022/05/10 06:16:44;;;;;;;12.35;8.68;;;;;;;15.06;67.42;100245.41;5109373;28;20046;-69
2022/05/10 06:19:30;;;;;;;12.63;7.68;;;;;;;15.10;67.54;100245.41;5110398;28;20047;-70
2022/05/10 06:22:15;;;;;;;13.15;8.20;;;;;;;15.09;67.39;100247.13;5109499;28;20062;-69
2022/05/10 06:24:58;;;;;;;14.13;7.45;;;;;;;15.08;67.25;100234.94;5110362;28;20442;-69
2022/05/10 06:27:42;;;;;;;10.25;8.10;;;;;;;15.11;67.42;100236.69;5110811;28;20050;-70
2022/05/10 06:30:26;;;;;;;10.15;7.85;;;;;;;15.12;67.50;100246.25;5110542;28;20046;-69
2022/05/10 06:33:11;;;;;;;9.88;7.43;;;;;;;15.13;67.33;100240.16;5109438;28;20498;-69
2022/05/10 06:35:55;;;;;;;12.52;7.00;;;;;;;15.14;67.45;100234.06;5109275;28;20502;-69
2022/05/10 06:38:40;;;;;;;10.85;7.70;;;;;;;15.14;67.42;100232.34;5109449;28;20202;-70
2022/05/10 06:41:24;;;;;;;10.10;7.90;;;;;;;15.16;67.40;100240.16;5109403;28;20108;-69
2022/05/10 06:44:11;;;;;;;13.73;7.25;;;;;;;15.17;67.42;100232.34;5110155;28;20177;-70
2022/05/10 06:46:55;;;;;;;8.73;7.82;;;;;;;15.15;67.46;100228.88;5109975;28;20411;-71
2022/05/10 06:49:41;;;;;;;11.25;7.65;;;;;;;15.17;67.48;100232.34;5095536;28;20457;-69
2022/05/10 06:52:26;;;;;;;12.05;8.00;;;;;;;15.19;67.50;100220.16;5096222;28;20132;-70
2022/05/10 06:55:10;;;;;;;14.63;8.20;;;;;;;15.22;67.50;100219.28;5095515;28;20047;-70
2022/05/10 06:57:54;;;;;;;;;;;;;;;15.21;67.48;100221.03;5095679;28;20051;-70
2022/05/10 07:00:40;;;;;;;9.00;7.53;;;;;;;15.22;67.39;100214.94;5096268;28;19925;-70
2022/05/10 07:03:31;;;;;;;9.95;7.00;;;;;;;15.25;67.46;100218.41;5095272;28;20043;-69
2022/05/10 07:06:19;;;;;;;9.75;7.38;;;;;;;15.27;67.42;100220.13;5095689;28;20568;-70
2022/05/10 07:09:03;;;;;;;9.93;8.20;;;;;;;15.30;67.03;100214.06;5095386;28;20514;-70
2022/05/10 07:11:47;;;;;;;10.40;6.68;;;;;;;15.32;67.52;100204.50;5095756;28;20074;-71
2022/05/10 07:14:31;;;;;;;9.85;6.82;;;;;;;15.32;67.40;100204.50;5095810;28;20090;-69
2022/05/10 07:17:15;;;;;;;9.18;7.72;;;;;;;15.33;67.40;100206.25;5095620;28;20047;-70
2022/05/10 07:19:59;;;;;;;11.77;7.30;;;;;;;15.34;67.36;100207.94;5095839;28;20042;-70
2022/05/10 07:22:44;;;;;;;8.57;7.30;;;;;;;15.36;67.52;100206.22;5095879;28;20506;-70
2022/05/10 07:25:28;;;;;;;11.75;7.13;;;;;;;15.40;67.62;100199.28;5095181;28;20043;-70
2022/05/10 07:28:12;;;;;;;9.68;7.15;;;;;;;15.43;67.45;100202.75;5094978;28;20055;-69
2022/05/10 07:30:57;;;;;;;8.95;7.57;;;;;;;15.45;67.42;100208.84;5095699;28;20086;-69
2022/05/10 07:33:41;;;;;;;7.90;6.95;;;;;;;15.47;67.38;100199.25;5095504;28;20062;-70
2022/05/10 07:36:25;;;;;;;11.00;7.18;;;;;;;15.48;67.45;100205.34;5095624;28;20137;-70
2022/05/10 07:39:12;;;;;;;10.85;7.65;;;;;;;15.49;67.32;100204.47;5095865;28;20068;-69
2022/05/10 07:41:58;;;;;;;8.73;7.45;;;;;;;15.50;67.29;100201.84;5094607;28;20051;-70
2022/05/10 07:44:45;;;;;;;9.68;6.57;;;;;;;15.54;67.34;100200.13;5094969;28;20049;-70
2022/05/10 07:47:29;;;;;;;10.80;7.15;;;;;;;15.56;67.35;100202.72;5094258;28;20055;-70
2022/05/10 07:50:13;;;;;;;8.02;6.80;;;;;;;15.57;67.44;100199.22;5094972;28;20132;-70
2022/05/10 07:52:59;;;;;;;8.65;7.50;;;;;;;15.56;67.48;100203.59;5094114;28;20046;-70
2022/05/10 07:55:44;;;;;;;9.20;7.13;;;;;;;15.57;67.47;100204.44;5095181;28;20049;-71
2022/05/10 07:58:30;;;;;;;10.18;7.50;;;;;;;15.57;67.15;100207.06;5094954;28;20050;-69
2022/05/10 08:01:14;;;;;;;14.27;8.27;;;;;;;15.58;67.38;100195.75;5092777;28;20050;-70
2022/05/10 08:03:58;;;;;;;;;;;;;;;15.56;67.40;100205.31;5094557;28;20564;-69
2022/05/10 08:06:46;;;;;;;12.18;7.55;;;;;;;15.55;67.29;100204.47;5123269;27;20425;-70
2022/05/10 08:09:30;;;;;;;10.85;7.35;;;;;;;15.57;67.44;100199.22;5094175;28;20548;-70
2022/05/10 08:12:14;;;;;;;8.57;7.05;;;;;;;15.58;67.53;100195.75;5094939;28;20071;-70
2022/05/10 08:14:58;;;;;;;9.05;7.15;;;;;;;15.58;67.37;100200.97;5094848;28;20140;-70
2022/05/10 08:17:42;;;;;;;12.02;7.43;;;;;;;15.60;67.54;100199.22;5094806;28;20128;-70
2022/05/10 08:20:26;;;;;;;9.55;7.35;;;;;;;15.61;67.49;100200.97;5094060;28;20513;-70
2022/05/10 08:23:14;;;;;;;15.23;7.30;;;;;;;15.61;67.53;100201.81;5095048;28;20120;-69
2022/05/10 08:26:00;;;;;;;9.23;7.55;;;;;;;15.63;67.53;100201.84;5093695;28;20093;-70
2022/05/10 08:28:44;;;;;;;8.23;6.90;;;;;;;15.65;67.27;100197.44;5093328;28;20085;-70
2022/05/10 08:31:31;;;;;;;14.40;6.95;;;;;;;15.66;67.53;100193.97;5094723;28;20051;-69
2022/05/10 08:34:19;;;;;;;10.40;7.07;;;;;;;15.68;67.32;100197.44;5093359;28;20039;-70
2022/05/10 08:37:08;;;;;;;8.75;6.32;;;;;;;15.70;67.30;100192.25;5094565;28;20051;-69
2022/05/10 08:39:52;;;;;;;11.55;7.22;;;;;;;15.70;67.44;100185.25;5094265;28;20071;-70
2022/05/10 08:42:46;;;;;;;11.55;7.07;;;;;;;15.72;67.30;100183.50;5094310;28;20418;-70
2022/05/10 08:45:35;;;;;;;8.90;7.90;;;;;;;15.74;67.46;100176.53;5093537;28;20510;-70
2022/05/10 08:48:28;;;;;;;14.70;8.05;;;;;;;15.76;67.53;100176.53;5093544;28;20548;-69
2022/05/10 08:51:13;;;;;;;10.05;7.25;;;;;;;15.82;67.30;100181.75;5093806;28;20051;-69
2022/05/10 08:53:58;;;;;;;11.20;7.68;;;;;;;15.86;67.41;100177.41;5094439;28;20047;-69
2022/05/10 08:56:53;;;;;;;11.68;6.90;;;;;;;15.90;67.29;100184.38;5094135;28;20411;-70
2022/05/10 09:00:01;;;;;;;10.02;7.55;;;;;;;15.93;67.26;100184.34;5093406;28;20102;-70
2022/05/10 09:02:51;;;;;;;11.00;6.90;;;;;;;16.01;67.37;100181.72;5092954;28;20089;-69
2022/05/10 09:05:42;;;;;;;10.25;6.97;;;;;;;16.02;67.30;100170.38;5092957;28;20419;-70
2022/05/10 09:08:35;;;;;;;14.50;6.90;;;;;;;16.01;67.23;100169.50;5093422;28;20046;-69
2022/05/10 09:11:22;;;;;;;10.30;6.57;;;;;;;16.01;67.12;100173.88;5092606;28;20118;-69
2022/05/10 09:14:13;;;;;;;12.18;6.93;;;;;;;16.01;67.30;100161.66;5093696;28;20047;-69
2022/05/10 09:16:58;;;;;;;11.10;8.07;;;;;;;16.02;67.22;100166.00;5092269;28;20047;-69
2022/05/10 09:19:43;;;;;;;7.85;6.45;;;;;;;16.01;67.21;100151.19;5093092;28;20047;-69
2022/05/10 09:22:36;;;;;;;7.97;7.15;;;;;;;16.02;67.24;100165.16;5092981;28;20091;-69
2022/05/10 09:25:35;;;;;;;10.38;6.70;;;;;;;16.04;66.96;100163.41;5092836;28;20097;-68
2022/05/10 09:28:46;;;;;;;11.90;6.50;;;;;;;16.04;67.14;100153.81;5092465;28;20101;-69
2022/05/10 09:34:58;;;;;;;12.75;7.05;;;;;;;16.13;67.05;100153.75;5093478;28;20062;-68
2022/05/10 09:37:49;;;;;;;9.38;6.88;;;;;;;16.18;67.14;100153.75;5092962;28;20122;-68
2022/05/10 09:40:48;;;;;;;9.65;7.10;;;;;;;16.18;67.08;100150.25;5092855;28;20104;-68
2022/05/10 09:43:33;;;;;;;9.85;6.53;;;;;;;16.19;66.93;100162.44;5093710;28;20055;-69
2022/05/10 09:46:29;;;;;;;13.82;6.55;;;;;;;16.22;66.74;100142.38;5092539;28;20085;-69
2022/05/10 09:49:52;;;;;;;8.60;6.25;;;;;;;16.21;66.77;100150.25;5092966;28;20505;-69
2022/05/10 09:52:39;;;;;;;10.70;6.97;;;;;;;16.21;66.89;100147.63;5037092;28;20052;-68
2022/05/10 09:55:28;;;;;;;7.05;6.35;;;;;;;16.21;66.84;100140.63;5092403;28;20081;-69
2022/05/10 09:58:19;;;;;;;12.10;6.82;;;;;;;16.20;66.96;100138.91;5093258;28;20036;-69
2022/05/10 10:01:07;;;;;;;8.95;6.30;;;;;;;16.21;66.70;100137.16;5093212;28;20479;-69
2022/05/10 10:03:53;;;;;;;9.15;6.35;;;;;;;16.22;66.81;100139.75;5092832;28;20109;-69
2022/05/10 10:06:41;;;;;;;9.70;6.63;;;;;;;16.25;66.80;100133.66;5092627;28;20055;-68
2022/05/10 10:09:36;;;;;;;10.23;5.85;;;;;;;16.26;66.65;100125.78;5093016;28;20043;-69
2022/05/10 10:12:37;;;;;;;10.77;5.53;;;;;;;16.26;66.64;100135.41;5092065;28;20082;-69
2022/05/10 10:15:37;;;;;;;7.15;5.95;;;;;;;16.26;66.65;100133.63;5091709;28;20048;-69
2022/05/10 10:18:39;;;;;;;12.10;5.75;;;;;;;16.28;66.61;100141.47;5092754;28;20596;-68
2022/05/10 10:21:27;;;;;;;15.40;6.03;;;;;;;16.27;66.50;100135.38;5093692;28;20514;-69
2022/05/10 10:24:19;;;;;;;10.32;6.10;;;;;;;16.27;66.77;100132.75;5095036;28;20051;-69
2022/05/10 10:27:15;;;;;;;7.18;6.32;;;;;;;16.31;66.75;100137.97;5096406;28;20051;-70
2022/05/10 10:30:21;;;;;;;13.88;5.80;;;;;;;16.34;66.36;100140.59;5097193;28;20051;-70
2022/05/10 10:33:14;;;;;;;14.23;6.63;;;;;;;16.35;66.67;100134.47;5095909;28;20038;-69
2022/05/10 10:36:07;;;;;;;12.43;6.10;;;;;;;16.38;66.38;100130.09;5095768;28;20086;-69
2022/05/10 10:39:00;;;;;;;11.00;6.15;;;;;;;16.40;66.24;100146.66;5095927;28;20051;-69
2022/05/10 10:41:54;;;;;;;15.10;5.90;;;;;;;16.43;66.30;100124.81;5096025;28;20043;-69
2022/05/10 10:44:41;;;;;;;;;;;;;;;16.44;66.36;100131.78;5095867;28;20077;-69
2022/05/10 10:47:54;;;;;;;6.43;5.60;;;;;;;16.46;66.17;100126.53;5096656;28;20316;-69
2022/05/10 10:50:38;;;;;;;11.13;5.40;;;;;;;16.46;66.15;100126.53;5096325;28;20422;-69
2022/05/10 10:53:24;;;;;;;;;;;;;;;16.43;66.22;100114.34;5096665;28;20121;-69
2022/05/10 10:56:48;;;;;;;5.90;4.75;;;;;;;16.44;66.11;100116.09;5095158;28;19918;-69
2022/05/10 10:59:51;;;;;;;7.18;6.43;;;;;;;16.44;66.10;100114.34;5096247;28;20506;-69
2022/05/10 11:02:44;;;;;;;10.63;6.07;;;;;;;16.47;66.05;100118.69;5095632;28;20082;-69
2022/05/10 11:05:40;;;;;;;6.97;6.25;;;;;;;16.49;66.02;100113.44;5095037;28;20137;-70
2022/05/10 11:08:36;;;;;;;7.80;5.93;;;;;;;16.49;65.98;100106.47;5096047;28;20050;-69
2022/05/10 11:11:59;;;;;;;8.25;5.35;;;;;;;16.51;65.97;100111.69;5096411;28;20466;-69
2022/05/10 11:15:05;;;;;;;6.75;5.18;;;;;;;16.52;65.95;100102.97;5096351;28;20046;-67
2022/05/10 11:17:57;;;;;;;9.85;5.50;;;;;;;16.52;65.77;100100.34;5094913;28;20131;-69
2022/05/10 11:20:56;;;;;;;8.73;5.35;;;;;;;16.53;65.70;100102.09;5095810;28;20050;-68
2022/05/10 11:23:55;;;;;;;10.90;6.18;;;;;;;16.55;65.75;100085.47;5095897;28;20062;-69
2022/05/10 11:27:01;;;;;;;7.45;5.63;;;;;;;16.58;65.64;100095.06;5095440;28;20070;-69
2022/05/10 11:30:00;;;;;;;9.75;5.70;;;;;;;16.58;65.58;100082.00;5095100;28;20134;-70
2022/05/10 11:33:07;;;;;;;9.38;5.75;;;;;;;16.63;65.60;100085.44;5094426;28;20125;-69
2022/05/10 11:36:12;;;;;;;7.70;5.80;;;;;;;16.63;65.42;100074.97;5094833;28;20529;-70
2022/05/10 11:39:08;;;;;;;10.27;5.45;;;;;;;16.66;65.42;100077.56;5094345;28;20047;-69
2022/05/10 11:42:02;;;;;;;13.60;5.63;;;;;;;16.69;65.52;100074.03;5095043;28;20151;-69
2022/05/10 11:45:13;;;;;;;12.33;5.43;;;;;;;16.67;65.42;100074.06;5094271;28;20055;-68
2022/05/10 11:48:08;;;;;;;9.13;5.30;;;;;;;16.70;65.26;100075.78;5094737;28;20312;-69
2022/05/10 11:54:20;;;;;;;11.02;5.65;;;;;;;16.71;65.15;100062.69;5095421;28;20050;-69
2022/05/10 11:57:30;;;;;;;10.57;6.10;;;;;;;16.73;65.23;100060.06;5094041;28;20056;-69
2022/05/10 12:00:26;;;;;;;11.45;5.28;;;;;;;16.74;65.29;100067.88;5094923;28;20070;-69
2022/05/10 12:03:35;;;;;;;9.32;5.85;;;;;;;16.75;65.22;100060.91;5093972;28;20043;-69
2022/05/10 12:06:25;;;;;;;9.77;5.32;;;;;;;16.79;65.04;100043.41;5093975;28;20120;-69
2022/05/10 12:09:13;;;;;;;8.65;5.45;;;;;;;16.81;65.05;100058.25;5094102;28;20116;-69
2022/05/10 12:11:57;;;;;;;8.57;5.22;;;;;;;16.84;65.13;100049.50;5093713;28;20560;-68
2022/05/10 12:21:41;;;;;;;10.23;5.43;;;;;;;16.90;65.03;100042.44;5094300;28;20102;-69
2022/05/10 12:24:32;;;;;;;8.68;6.00;;;;;;;16.90;64.71;100039.81;5052608;28;20059;-70
2022/05/10 12:27:19;;;;;;;8.68;5.80;;;;;;;16.90;64.70;100033.69;5094661;28;20082;-69
2022/05/10 12:30:09;;;;;;;10.75;5.40;;;;;;;16.89;64.83;100037.22;5093520;28;20175;-69
2022/05/10 12:32:53;;;;;;;8.27;5.40;;;;;;;16.90;64.77;100026.72;5094604;28;20047;-69
2022/05/10 12:35:42;;;;;;;;;;;;;;;16.89;64.86;100018.91;5094009;28;20050;-69
2022/05/10 12:38:42;;;;;;;10.35;6.60;;;;;;;16.94;64.89;100017.09;5094322;28;19923;-69
2022/05/10 12:41:52;;;;;;;7.32;5.30;;;;;;;16.96;64.40;100014.50;5094429;28;20158;-69
2022/05/10 12:45:17;;;;;;;13.65;6.00;;;;;;;16.98;64.61;100015.34;5093256;28;20135;-69
2022/05/10 12:48:06;;;;;;;;;;;;;;;16.96;64.54;100011.88;5094721;28;20461;-69
2022/05/10 12:51:07;;;;;;;7.68;5.40;;;;;;;16.94;64.63;100008.38;5093357;28;19918;-69
2022/05/10 12:54:01;;;;;;;9.18;6.03;;;;;;;16.93;64.54;100010.13;5092827;28;20051;-69
2022/05/10 12:57:10;;;;;;;6.53;5.32;;;;;;;16.94;64.39;100004.00;5093918;28;20077;-69
2022/05/10 13:00:06;;;;;;;8.50;6.10;;;;;;;16.94;64.24;100011.00;5092944;28;20089;-69
2022/05/10 13:02:59;;;;;;;9.68;5.43;;;;;;;16.94;64.38;99997.91;5093117;28;20066;-69
2022/05/10 13:06:26;;;;;;;9.52;5.25;;;;;;;16.94;64.27;100003.16;5094139;28;20407;-69
2022/05/10 13:09:25;;;;;;;13.10;5.72;;;;;;;16.93;64.31;99997.03;5093870;28;20458;-69
2022/05/10 13:12:12;;;;;;;8.73;5.43;;;;;;;16.95;64.39;100003.16;5093138;28;20131;-68
2022/05/10 13:15:11;;;;;;;13.88;5.38;;;;;;;16.96;64.30;100004.03;5093683;28;20510;-68
2022/05/10 13:17:58;;;;;;;6.55;5.60;;;;;;;16.95;64.26;99995.28;5093693;28;20043;-69
2022/05/10 13:20:49;;;;;;;9.13;4.97;;;;;;;16.95;64.08;99992.69;5092784;28;20483;-69
2022/05/10 13:23:36;;;;;;;6.38;5.30;;;;;;;16.95;64.01;99986.59;5092629;28;20131;-69
2022/05/10 13:26:23;;;;;;;6.38;5.28;;;;;;;16.95;64.19;99979.59;5093631;28;20077;-69
2022/05/10 13:29:09;;;;;;;7.30;5.43;;;;;;;16.97;64.00;99979.59;5092832;28;20046;-69
2022/05/10 13:31:59;;;;;;;7.43;5.10;;;;;;;16.96;64.06;99978.72;5093920;28;20533;-69